Time;durP1;ratioP1;P1;durP2;ratioP2;P2;SDS_P1;SDS_P2;PMS_P1;PMS_P2;Temp;Humidity;BMP_temperature;BMP_pressure;BME280_temperature;BME280_humidity;BME280_pressure;Samples;Min_cycle;Max_cycle;Signal;HPM_P1;HPM_P2
2024/04/07 00:01:26;;;;;;;6.70;6.30;;;18.40;8.50;;;;;;4867927;29;20381;-80
2024/04/07 00:03:52;;;;;;;7.60;7.10;;;18.40;8.60;;;;;;4871988;29;20587;-81
2024/04/07 00:06:17;;;;;;;5.73;5.40;;;18.40;8.50;;;;;;4879954;29;20233;-81
2024/04/07 00:08:46;;;;;;;6.83;6.40;;;18.40;8.70;;;;;;4879423;29;20284;-81
2024/04/07 00:11:12;;;;;;;6.43;6.10;;;18.30;8.30;;;;;;4879747;29;20216;-81
2024/04/07 00:13:37;;;;;;;6.80;6.30;;;18.40;8.10;;;;;;4873682;29;20432;-82
2024/04/07 00:16:03;;;;;;;7.00;6.60;;;18.40;8.20;;;;;;4874354;29;20198;-80
2024/04/07 00:18:28;;;;;;;7.20;6.80;;;18.30;8.30;;;;;;4869801;29;20183;-78
2024/04/07 00:21:02;;;;;;;8.10;7.53;;;18.40;8.10;;;;;;4867049;29;20206;-82
2024/04/07 00:23:28;;;;;;;6.30;6.00;;;18.40;7.80;;;;;;4883568;29;20193;-82
2024/04/07 00:25:54;;;;;;;6.87;6.47;;;18.40;7.70;;;;;;4886657;29;20433;-82
2024/04/07 00:28:19;;;;;;;6.40;6.10;;;18.40;8.00;;;;;;4885836;29;20466;-82
2024/04/07 00:30:45;;;;;;;6.70;6.40;;;18.40;7.60;;;;;;4877064;29;20195;-82
2024/04/07 00:33:10;;;;;;;6.13;5.63;;;18.30;7.80;;;;;;4866801;29;20555;-81
2024/04/07 00:35:36;;;;;;;6.70;6.20;;;18.30;7.50;;;;;;4867990;29;20205;-82
2024/04/07 00:38:01;;;;;;;6.47;6.17;;;18.30;7.50;;;;;;4877880;29;20288;-81
2024/04/07 00:40:27;;;;;;;6.63;6.27;;;18.30;7.50;;;;;;4885643;29;20232;-83
2024/04/07 00:42:54;;;;;;;7.23;6.50;;;18.30;7.70;;;;;;4884510;29;20218;-82
2024/04/07 00:45:20;;;;;;;6.70;6.20;;;18.30;7.50;;;;;;4884562;29;20202;-82
2024/04/07 00:47:46;;;;;;;5.43;5.23;;;18.30;7.50;;;;;;4884106;29;21021;-82
2024/04/07 00:50:12;;;;;;;7.07;6.47;;;18.30;7.70;;;;;;4884421;29;20639;-82
2024/04/07 00:52:38;;;;;;;6.97;6.47;;;18.30;7.80;;;;;;4884660;29;20454;-81
2024/04/07 00:55:07;;;;;;;5.53;5.30;;;18.30;7.50;;;;;;4880350;29;20431;-82
2024/04/07 00:57:34;;;;;;;5.73;5.53;;;18.30;7.50;;;;;;4880278;29;20450;-82
2024/04/07 01:00:00;;;;;;;5.70;5.50;;;18.30;6.80;;;;;;4866765;29;20538;-82
2024/04/07 01:02:26;;;;;;;5.47;5.23;;;18.30;6.60;;;;;;4868933;29;20459;-82
2024/04/07 01:04:51;;;;;;;5.83;5.47;;;18.30;6.70;;;;;;4873452;29;20458;-82
2024/04/07 01:07:17;;;;;;;5.10;4.83;;;18.30;6.90;;;;;;4866836;29;20219;-82
2024/04/07 01:09:43;;;;;;;5.80;5.50;;;18.30;6.60;;;;;;4876877;29;20666;-83
2024/04/07 01:12:25;;;;;;;4.90;4.70;;;18.30;6.70;;;;;;4866295;29;20463;-82
2024/04/07 01:14:50;;;;;;;5.23;4.97;;;18.30;6.60;;;;;;4866703;29;20478;-82
2024/04/07 01:17:16;;;;;;;5.53;5.30;;;18.30;6.70;;;;;;4869255;29;20435;-80
2024/04/07 01:19:44;;;;;;;5.07;4.87;;;18.30;6.80;;;;;;4885933;29;20189;-81
2024/04/07 01:22:12;;;;;;;6.50;5.57;;;18.30;7.00;;;;;;4881336;29;20463;-82
2024/04/07 01:24:37;;;;;;;5.60;5.20;;;18.30;7.00;;;;;;4873530;29;20551;-81
2024/04/07 01:27:03;;;;;;;5.73;5.43;;;18.30;7.50;;;;;;4865736;29;20915;-82
2024/04/07 01:29:29;;;;;;;5.73;5.33;;;18.30;7.30;;;;;;4866018;29;20191;-81
2024/04/07 01:31:54;;;;;;;5.50;5.27;;;18.30;6.90;;;;;;4869464;29;20226;-81
2024/04/07 01:34:20;;;;;;;5.57;5.30;;;18.20;7.50;;;;;;4871782;29;20190;-82
2024/04/07 01:36:47;;;;;;;5.40;5.10;;;18.20;7.50;;;;;;4865940;29;20214;-82
2024/04/07 01:39:13;;;;;;;5.60;5.30;;;18.20;7.70;;;;;;4869817;29;20438;-82
2024/04/07 01:41:38;;;;;;;7.43;6.80;;;18.20;7.60;;;;;;4885106;29;20454;-81
2024/04/07 01:44:04;;;;;;;5.60;5.30;;;18.20;7.50;;;;;;4885497;29;20189;-82
2024/04/07 01:46:29;;;;;;;5.87;5.60;;;18.20;7.60;;;;;;4883956;29;20253;-81
2024/04/07 01:48:55;;;;;;;6.20;5.63;;;18.20;8.00;;;;;;4883326;29;20277;-82
2024/04/07 01:51:20;;;;;;;5.47;5.17;;;18.20;8.00;;;;;;4884213;29;20216;-82
2024/04/07 01:53:46;;;;;;;5.93;5.63;;;18.10;8.20;;;;;;4882827;29;20193;-82
2024/04/07 01:56:11;;;;;;;6.63;6.13;;;18.10;8.20;;;;;;4870010;29;20601;-82
2024/04/07 01:58:37;;;;;;;5.30;5.00;;;18.10;7.80;;;;;;4877778;29;20189;-79
2024/04/07 02:01:04;;;;;;;5.67;5.30;;;18.10;7.90;;;;;;4891580;29;20238;-79
2024/04/07 02:03:29;;;;;;;5.87;5.47;;;18.00;8.10;;;;;;4893035;29;20529;-81
2024/04/07 02:05:55;;;;;;;5.40;5.13;;;18.00;7.90;;;;;;4891871;29;20442;-81
2024/04/07 02:08:20;;;;;;;5.57;5.37;;;18.00;7.80;;;;;;4886270;29;20211;-82
2024/04/07 02:10:50;;;;;;;4.83;4.63;;;18.10;7.90;;;;;;4882113;29;20197;-81
2024/04/07 02:13:16;;;;;;;5.73;5.33;;;18.10;7.90;;;;;;4880692;29;20190;-81
2024/04/07 02:15:42;;;;;;;5.30;5.00;;;18.10;7.80;;;;;;4872435;29;20467;-81
2024/04/07 02:18:08;;;;;;;5.30;5.10;;;18.00;8.10;;;;;;4884059;29;20502;-81
2024/04/07 02:20:34;;;;;;;4.80;4.60;;;18.00;8.20;;;;;;4884154;29;20430;-81
2024/04/07 02:23:00;;;;;;;5.50;5.20;;;18.00;8.30;;;;;;4876338;29;20257;-80
2024/04/07 02:25:26;;;;;;;4.83;4.63;;;18.00;8.30;;;;;;4892860;29;20273;-81
2024/04/07 02:27:51;;;;;;;5.70;5.40;;;18.00;8.70;;;;;;4892075;29;20225;-82
2024/04/07 02:30:17;;;;;;;5.20;4.90;;;18.00;8.50;;;;;;4888083;29;20451;-81
2024/04/07 02:32:42;;;;;;;4.87;4.57;;;17.90;8.70;;;;;;4873444;29;20313;-81
2024/04/07 02:35:08;;;;;;;5.63;5.33;;;17.90;8.50;;;;;;4873708;29;20202;-81
2024/04/07 02:37:33;;;;;;;6.20;5.90;;;17.90;8.40;;;;;;4889365;29;20202;-80
2024/04/07 02:39:59;;;;;;;5.63;5.23;;;17.90;8.10;;;;;;4882546;29;20222;-81
2024/04/07 02:42:26;;;;;;;5.70;5.30;;;17.90;8.20;;;;;;4887063;29;20233;-81
2024/04/07 02:48:20;;;;;;;5.90;5.53;;;17.90;8.40;;;;;;4891746;29;20489;-81
2024/04/07 02:50:21;;;;;;;5.07;4.77;;;17.90;8.60;;;;;;4886642;29;20474;-81
2024/04/07 02:52:47;;;;;;;5.33;5.03;;;17.90;8.40;;;;;;4866815;29;20465;-82
2024/04/07 02:55:12;;;;;;;6.20;4.80;;;18.00;8.10;;;;;;4861254;29;20202;-82
2024/04/07 02:57:38;;;;;;;4.80;4.60;;;18.00;7.30;;;;;;4870245;29;20277;-81
2024/04/07 03:00:04;;;;;;;5.40;4.90;;;18.00;8.60;;;;;;4880455;29;20228;-81
2024/04/07 03:02:30;;;;;;;5.50;5.30;;;18.00;8.50;;;;;;4866297;29;20218;-81
2024/04/07 03:04:56;;;;;;;5.23;4.93;;;18.00;8.40;;;;;;4865053;29;20537;-81
2024/04/07 03:07:22;;;;;;;5.10;4.90;;;18.00;8.20;;;;;;4880443;29;20228;-82
2024/04/07 03:09:53;;;;;;;6.03;5.43;;;18.00;8.20;;;;;;4880836;29;20559;-82
2024/04/07 03:12:19;;;;;;;5.37;5.07;;;18.00;8.40;;;;;;4867672;29;20497;-82
2024/04/07 03:14:44;;;;;;;5.50;5.20;;;18.00;8.70;;;;;;4885075;29;20435;-79
2024/04/07 03:17:10;;;;;;;5.80;5.53;;;18.00;9.00;;;;;;4885861;29;20193;-82
2024/04/07 03:19:35;;;;;;;6.50;6.10;;;18.00;9.70;;;;;;4875199;29;20203;-82
2024/04/07 03:22:01;;;;;;;5.87;5.47;;;17.90;10.40;;;;;;4865929;29;20286;-82
2024/04/07 03:24:28;;;;;;;6.90;6.50;;;17.90;10.20;;;;;;4866393;29;20549;-80
2024/04/07 03:26:54;;;;;;;7.93;6.17;;;17.80;10.80;;;;;;4866182;29;20619;-82
2024/04/07 03:29:19;;;;;;;6.50;6.00;;;17.80;10.50;;;;;;4867736;29;20442;-82
2024/04/07 03:31:45;;;;;;;6.47;6.07;;;17.80;10.80;;;;;;4874008;29;20232;-83
2024/04/07 03:34:10;;;;;;;6.27;5.87;;;17.80;11.60;;;;;;4881946;29;20203;-82
2024/04/07 03:36:36;;;;;;;7.07;6.57;;;17.80;11.20;;;;;;4866882;29;20418;-82
2024/04/07 03:39:02;;;;;;;7.60;7.10;;;17.80;11.20;;;;;;4866624;29;20191;-82
2024/04/07 03:41:28;;;;;;;7.10;6.50;;;17.80;11.40;;;;;;4867063;29;20713;-82
2024/04/07 03:43:53;;;;;;;7.00;6.47;;;17.70;11.50;;;;;;4877632;29;20426;-82
2024/04/07 03:46:20;;;;;;;7.50;7.00;;;17.70;11.50;;;;;;4887463;29;20194;-82
2024/04/07 03:48:45;;;;;;;6.30;6.00;;;17.70;11.50;;;;;;4880822;29;20191;-81
2024/04/07 03:51:11;;;;;;;7.10;6.70;;;17.70;11.50;;;;;;4882517;29;20458;-82
2024/04/07 03:53:36;;;;;;;6.70;6.30;;;17.70;12.10;;;;;;4888731;29;20201;-82
2024/04/07 03:56:02;;;;;;;7.13;6.73;;;17.70;12.00;;;;;;4886744;29;20201;-82
2024/04/07 03:58:28;;;;;;;7.30;6.90;;;17.70;12.00;;;;;;4885817;29;20737;-82
2024/04/07 04:00:53;;;;;;;7.30;6.90;;;17.70;12.30;;;;;;4884221;29;20506;-80
2024/04/07 04:03:19;;;;;;;7.37;6.80;;;17.70;12.30;;;;;;4872638;29;20198;-81
2024/04/07 04:05:44;;;;;;;7.67;7.20;;;17.70;12.50;;;;;;4867912;29;20260;-82
2024/04/07 04:08:10;;;;;;;7.63;7.13;;;17.60;12.40;;;;;;4868151;29;20214;-81
2024/04/07 04:10:40;;;;;;;7.97;7.47;;;17.60;12.50;;;;;;4873216;29;20215;-80
2024/04/07 04:13:06;;;;;;;7.80;7.20;;;17.60;12.50;;;;;;4876690;29;20194;-82
2024/04/07 04:15:34;;;;;;;7.57;7.17;;;17.60;12.70;;;;;;4884240;29;20431;-80
2024/04/07 04:17:59;;;;;;;6.43;6.13;;;17.60;12.60;;;;;;4883798;29;20453;-81
2024/04/07 04:20:25;;;;;;;6.40;6.10;;;17.60;12.60;;;;;;4868061;29;21070;-81
2024/04/07 04:22:50;;;;;;;6.50;6.10;;;17.60;12.70;;;;;;4863533;29;20218;-81
2024/04/07 04:25:17;;;;;;;6.40;6.10;;;17.60;12.60;;;;;;4862687;29;20643;-82
2024/04/07 04:27:42;;;;;;;7.23;6.73;;;17.60;12.60;;;;;;4862516;29;20207;-82
2024/04/07 04:30:08;;;;;;;6.20;5.70;;;17.60;12.80;;;;;;4862745;29;20445;-81
2024/04/07 04:32:33;;;;;;;10.07;6.90;;;17.60;12.70;;;;;;4864671;29;20219;-83
2024/04/07 04:34:59;;;;;;;6.40;6.10;;;17.60;12.80;;;;;;4862240;29;20285;-83
2024/04/07 04:37:24;;;;;;;6.90;6.50;;;17.60;12.90;;;;;;4866432;29;20186;-82
2024/04/07 04:39:50;;;;;;;6.80;6.43;;;17.60;13.10;;;;;;4871373;29;20197;-81
2024/04/07 04:42:16;;;;;;;6.90;6.20;;;17.60;12.90;;;;;;4877241;29;20691;-83
2024/04/07 04:44:41;;;;;;;7.03;6.43;;;17.60;12.80;;;;;;4885102;29;20193;-83
2024/04/07 04:47:08;;;;;;;6.50;6.10;;;17.70;12.80;;;;;;4877833;29;20292;-82
2024/04/07 04:49:33;;;;;;;6.47;6.03;;;17.60;12.90;;;;;;4872907;29;20193;-81
2024/04/07 04:51:59;;;;;;;6.30;5.87;;;17.70;13.00;;;;;;4877563;29;20458;-81
2024/04/07 04:54:24;;;;;;;7.13;6.20;;;17.60;12.90;;;;;;4864902;29;20287;-80
2024/04/07 04:56:50;;;;;;;6.27;5.53;;;17.60;13.00;;;;;;4865730;29;20187;-81
2024/04/07 04:59:15;;;;;;;5.70;5.30;;;17.60;13.10;;;;;;4874059;29;20198;-80
2024/04/07 05:01:41;;;;;;;6.23;5.80;;;17.50;13.10;;;;;;4879067;29;20281;-81
2024/04/07 05:04:06;;;;;;;6.43;6.13;;;17.50;13.20;;;;;;4873780;29;20201;-80
2024/04/07 05:06:32;;;;;;;5.93;5.63;;;17.50;13.20;;;;;;4872235;29;20238;-82
2024/04/07 05:08:58;;;;;;;5.90;5.60;;;17.50;13.40;;;;;;4873361;29;20186;-83
2024/04/07 05:11:24;;;;;;;6.23;5.83;;;17.50;13.30;;;;;;4876543;29;20482;-82
2024/04/07 05:13:50;;;;;;;6.23;5.83;;;17.50;13.30;;;;;;4873278;29;20190;-82
2024/04/07 05:16:17;;;;;;;6.67;6.13;;;17.60;13.20;;;;;;4884217;29;20433;-80
2024/04/07 05:18:42;;;;;;;5.93;5.63;;;17.50;13.60;;;;;;4874133;29;20322;-80
2024/04/07 05:21:09;;;;;;;5.83;5.53;;;17.40;13.60;;;;;;4860005;29;20565;-80
2024/04/07 05:23:42;;;;;;;6.20;5.90;;;17.30;13.80;;;;;;4867458;29;20193;-80
2024/04/07 05:26:16;;;;;;;6.20;5.90;;;17.30;14.10;;;;;;4870719;29;20443;-80
2024/04/07 05:28:42;;;;;;;6.33;6.03;;;17.30;14.10;;;;;;4867970;29;20456;-80
2024/04/07 05:31:13;;;;;;;6.10;5.77;;;17.40;14.20;;;;;;4891377;23;20967;-77
2024/04/07 05:33:44;;;;;;;5.97;5.57;;;17.40;14.40;;;;;;4878213;29;20446;-77
2024/04/07 05:36:10;;;;;;;6.40;5.87;;;17.40;14.40;;;;;;4879718;29;20450;-78
2024/04/07 05:38:36;;;;;;;5.87;5.57;;;17.50;14.70;;;;;;4890242;29;20926;-77
2024/04/07 05:41:02;;;;;;;6.33;6.00;;;17.50;14.60;;;;;;4894068;29;20668;-78
2024/04/07 05:43:28;;;;;;;6.73;6.43;;;17.50;14.40;;;;;;4908205;29;20469;-76
2024/04/07 05:45:54;;;;;;;6.87;6.47;;;17.50;14.30;;;;;;4885868;29;20684;-76
2024/04/07 05:48:20;;;;;;;7.30;6.87;;;17.50;14.40;;;;;;4884235;29;20222;-76
2024/04/07 05:50:46;;;;;;;6.70;6.30;;;17.40;14.60;;;;;;4889563;29;20794;-76
2024/04/07 05:53:12;;;;;;;6.60;6.20;;;17.50;14.70;;;;;;4896619;29;20449;-79
2024/04/07 05:55:39;;;;;;;7.07;6.77;;;17.50;14.80;;;;;;4880427;29;20981;-76
2024/04/07 05:58:04;;;;;;;7.03;6.37;;;17.40;15.20;;;;;;4893362;29;20445;-77
2024/04/07 06:00:31;;;;;;;6.07;5.67;;;17.50;15.30;;;;;;4890760;29;20481;-77
2024/04/07 06:02:57;;;;;;;5.87;5.57;;;17.50;15.30;;;;;;4883004;29;20214;-79
2024/04/07 06:05:23;;;;;;;6.20;5.80;;;17.50;15.40;;;;;;4901047;29;20426;-79
2024/04/07 06:07:51;;;;;;;6.13;5.83;;;17.50;15.70;;;;;;4887616;29;20216;-77
2024/04/07 06:10:17;;;;;;;7.10;6.60;;;17.50;15.70;;;;;;4886662;29;20457;-77
2024/04/07 06:12:43;;;;;;;6.50;6.10;;;17.50;15.90;;;;;;4888378;29;20457;-78
2024/04/07 06:15:09;;;;;;;6.53;6.13;;;17.60;15.40;;;;;;4879478;29;20190;-76
2024/04/07 06:17:34;;;;;;;6.53;6.07;;;17.50;15.70;;;;;;4883656;29;20189;-77
2024/04/07 06:20:00;;;;;;;7.57;7.03;;;17.60;15.80;;;;;;4892840;29;20465;-77
2024/04/07 06:22:26;;;;;;;7.30;6.80;;;17.60;15.80;;;;;;4889095;29;20357;-77
2024/04/07 06:24:52;;;;;;;6.90;6.40;;;17.60;16.10;;;;;;4892544;29;20263;-75
2024/04/07 06:27:19;;;;;;;6.13;5.80;;;17.60;15.80;;;;;;4893064;29;20465;-76
2024/04/07 06:29:44;;;;;;;7.40;7.00;;;17.60;15.40;;;;;;4901910;29;20430;-77
2024/04/07 06:32:10;;;;;;;10.33;6.73;;;17.60;15.20;;;;;;4884525;29;20569;-77
2024/04/07 06:34:35;;;;;;;6.87;6.50;;;17.60;15.80;;;;;;4890319;29;20206;-76
2024/04/07 06:37:01;;;;;;;6.30;6.00;;;17.50;15.70;;;;;;4886852;29;20189;-77
2024/04/07 06:39:26;;;;;;;7.43;7.03;;;17.50;15.70;;;;;;4890240;29;20209;-77
2024/04/07 06:41:52;;;;;;;6.60;6.20;;;17.50;16.10;;;;;;4889790;29;20268;-77
2024/04/07 06:44:18;;;;;;;6.63;6.23;;;17.60;16.70;;;;;;4884770;29;20190;-77
2024/04/07 06:46:43;;;;;;;7.97;7.37;;;17.50;16.80;;;;;;4886052;29;20224;-77
2024/04/07 06:49:09;;;;;;;7.87;7.30;;;17.60;16.00;;;;;;4885537;29;20442;-76
2024/04/07 06:51:35;;;;;;;7.53;7.03;;;17.60;16.70;;;;;;4880583;29;20567;-77
2024/04/07 06:54:00;;;;;;;8.40;7.80;;;17.50;16.70;;;;;;4880905;29;20191;-77
2024/04/07 06:56:26;;;;;;;8.60;8.10;;;17.50;16.60;;;;;;4891411;29;20189;-77
2024/04/07 06:58:51;;;;;;;9.47;8.70;;;17.50;16.40;;;;;;4895540;29;20781;-75
2024/04/07 07:01:17;;;;;;;7.60;7.10;;;17.50;16.30;;;;;;4904860;29;20665;-77
2024/04/07 07:03:43;;;;;;;7.47;6.90;;;17.40;16.20;;;;;;4894899;29;20206;-77
2024/04/07 07:06:13;;;;;;;7.93;7.33;;;17.50;17.30;;;;;;4896934;29;20687;-78
2024/04/07 07:08:40;;;;;;;7.77;7.13;;;17.50;17.50;;;;;;4893306;29;20488;-77
2024/04/07 07:11:07;;;;;;;8.27;7.57;;;17.50;17.20;;;;;;4905469;29;20470;-76
2024/04/07 07:13:36;;;;;;;7.20;6.80;;;17.60;16.80;;;;;;4894117;29;20444;-77
2024/04/07 07:16:01;;;;;;;8.37;7.77;;;17.60;16.50;;;;;;4896775;29;20429;-77
2024/04/07 07:18:27;;;;;;;7.40;6.87;;;17.60;16.60;;;;;;4893318;29;20462;-77
2024/04/07 07:20:52;;;;;;;7.77;7.37;;;17.70;16.20;;;;;;4894654;29;20661;-77
2024/04/07 07:23:18;;;;;;;7.17;6.67;;;17.70;15.90;;;;;;4892107;29;20572;-77
2024/04/07 07:25:43;;;;;;;6.97;6.47;;;17.70;15.70;;;;;;4890136;29;20245;-77
2024/04/07 07:28:10;;;;;;;7.37;6.87;;;17.60;15.60;;;;;;4889683;29;20206;-76
2024/04/07 07:30:36;;;;;;;7.57;6.97;;;17.70;15.90;;;;;;4895225;29;20186;-77
2024/04/07 07:33:03;;;;;;;7.37;6.87;;;17.70;16.10;;;;;;4904963;29;20525;-76
2024/04/07 07:35:29;;;;;;;7.10;6.70;;;17.70;16.50;;;;;;4893956;29;20243;-76
2024/04/07 07:37:54;;;;;;;8.17;7.57;;;17.70;15.90;;;;;;4895501;29;20437;-76
2024/04/07 07:40:20;;;;;;;7.43;7.07;;;17.80;16.80;;;;;;4883038;29;20449;-76
2024/04/07 07:42:45;;;;;;;8.00;7.60;;;17.80;16.90;;;;;;4893863;29;20695;-76
2024/04/07 07:45:11;;;;;;;8.97;8.07;;;17.90;16.70;;;;;;4896162;29;20193;-78
2024/04/07 07:47:36;;;;;;;7.10;6.50;;;17.90;16.50;;;;;;4898578;29;20205;-76
2024/04/07 07:50:02;;;;;;;8.53;7.80;;;17.90;15.70;;;;;;4898065;29;20553;-77
2024/04/07 07:52:28;;;;;;;7.87;7.37;;;17.90;16.40;;;;;;4903826;29;20215;-76
2024/04/07 07:54:53;;;;;;;7.60;7.00;;;18.00;14.90;;;;;;4893739;29;20533;-77
2024/04/07 07:57:19;;;;;;;8.73;7.30;;;18.10;15.40;;;;;;4908568;29;20225;-78
2024/04/07 07:59:45;;;;;;;7.80;7.03;;;18.10;14.70;;;;;;4890435;29;20669;-76
2024/04/07 08:02:10;;;;;;;7.30;6.73;;;18.10;13.60;;;;;;4884459;29;20222;-78
2024/04/07 08:04:37;;;;;;;7.30;6.70;;;18.20;14.70;;;;;;4897821;29;20481;-77
2024/04/07 08:07:03;;;;;;;7.47;6.87;;;18.30;15.80;;;;;;4882370;29;20330;-77
2024/04/07 08:09:28;;;;;;;6.73;6.30;;;18.30;14.70;;;;;;4896723;29;20466;-77
2024/04/07 08:11:54;;;;;;;8.37;7.40;;;18.40;14.10;;;;;;4883911;29;20217;-77
2024/04/07 08:14:20;;;;;;;7.17;6.50;;;18.40;14.80;;;;;;4887028;29;20192;-77
2024/04/07 08:16:45;;;;;;;6.80;6.30;;;18.50;14.80;;;;;;4898271;29;20524;-77
2024/04/07 08:19:11;;;;;;;7.20;6.60;;;18.50;14.50;;;;;;4898682;29;20676;-78
2024/04/07 08:21:38;;;;;;;6.97;6.47;;;18.50;13.50;;;;;;4894961;29;20221;-77
2024/04/07 08:24:04;;;;;;;7.83;6.60;;;18.60;13.70;;;;;;4890758;29;20193;-76
2024/04/07 08:26:29;;;;;;;6.33;5.83;;;18.60;13.10;;;;;;4900867;29;20445;-78
2024/04/07 08:28:55;;;;;;;5.83;5.43;;;18.70;13.20;;;;;;4895488;29;20827;-76
2024/04/07 08:31:21;;;;;;;7.50;6.50;;;18.80;13.40;;;;;;4894862;29;20341;-77
2024/04/07 08:33:47;;;;;;;5.77;5.37;;;18.90;12.80;;;;;;4892611;29;20457;-76
2024/04/07 08:36:12;;;;;;;6.83;6.40;;;18.90;12.20;;;;;;4893097;29;20224;-77
2024/04/07 08:38:38;;;;;;;7.27;6.20;;;19.00;12.60;;;;;;4899706;29;20193;-78
2024/04/07 08:41:10;;;;;;;7.10;6.60;;;19.00;12.40;;;;;;4893260;29;20710;-76
2024/04/07 08:43:38;;;;;;;6.93;6.30;;;19.10;12.80;;;;;;4900263;29;20197;-77
2024/04/07 08:46:13;;;;;;;4.83;4.53;;;19.20;12.40;;;;;;4901550;29;20490;-77
2024/04/07 08:48:42;;;;;;;7.07;5.57;;;19.30;12.50;;;;;;4895493;29;20477;-77
2024/04/07 08:51:12;;;;;;;6.97;5.20;;;19.30;12.60;;;;;;4899348;29;20437;-77
2024/04/07 08:53:42;;;;;;;6.10;5.10;;;19.50;11.40;;;;;;4896199;29;20443;-77
2024/04/07 08:56:09;;;;;;;5.40;4.90;;;19.60;10.80;;;;;;4893773;29;20438;-77
2024/04/07 08:58:40;;;;;;;6.10;5.50;;;19.60;10.70;;;;;;4893609;29;20434;-76
2024/04/07 09:01:14;;;;;;;6.30;5.70;;;19.60;10.80;;;;;;4901575;29;20443;-77
2024/04/07 09:03:41;;;;;;;7.00;5.63;;;19.70;10.90;;;;;;4892514;29;20438;-77
2024/04/07 09:06:06;;;;;;;8.50;5.47;;;19.70;10.60;;;;;;4899939;29;20446;-78
2024/04/07 09:08:32;;;;;;;6.40;5.50;;;19.70;10.90;;;;;;4890366;29;20489;-77
2024/04/07 09:10:58;;;;;;;5.37;4.97;;;19.80;10.70;;;;;;4897533;29;20190;-78
2024/04/07 09:13:23;;;;;;;6.43;5.43;;;19.80;10.60;;;;;;4899576;29;20345;-78
2024/04/07 09:15:49;;;;;;;6.00;4.77;;;19.90;10.30;;;;;;4894719;29;20268;-76
2024/04/07 09:18:17;;;;;;;6.23;5.70;;;20.00;10.20;;;;;;4892452;29;20206;-78
2024/04/07 09:20:44;;;;;;;5.67;5.13;;;20.10;10.00;;;;;;4888948;29;20526;-77
2024/04/07 09:23:09;;;;;;;5.80;5.30;;;20.10;9.90;;;;;;4895053;29;20467;-77
2024/04/07 09:25:35;;;;;;;9.20;5.53;;;20.10;10.00;;;;;;4896959;29;20537;-77
2024/04/07 09:28:02;;;;;;;5.97;5.47;;;20.20;9.80;;;;;;4890165;29;20297;-76
2024/04/07 09:30:30;;;;;;;7.60;5.00;;;20.30;9.60;;;;;;4894832;29;20197;-78
2024/04/07 09:32:55;;;;;;;5.37;4.83;;;20.40;9.20;;;;;;4908203;29;20469;-77
2024/04/07 09:35:21;;;;;;;8.57;4.80;;;20.50;8.50;;;;;;4894610;29;20802;-77
2024/04/07 09:37:46;;;;;;;8.53;5.40;;;20.50;8.40;;;;;;4891588;29;20197;-77
2024/04/07 09:40:12;;;;;;;6.00;5.40;;;20.50;7.90;;;;;;4894173;29;20288;-76
2024/04/07 09:42:39;;;;;;;7.17;5.70;;;20.50;8.20;;;;;;4911657;29;20213;-76
2024/04/07 09:45:11;;;;;;;5.50;5.20;;;20.60;7.70;;;;;;4892714;29;20208;-77
2024/04/07 09:47:38;;;;;;;7.50;4.90;;;20.60;7.40;;;;;;4898109;29;20477;-76
2024/04/07 09:50:31;;;;;;;6.93;5.07;;;20.70;7.50;;;;;;4907573;29;20437;-75
2024/04/07 09:53:04;;;;;;;8.97;5.97;;;20.60;7.60;;;;;;4884360;29;20967;-76
2024/04/07 09:55:38;;;;;;;7.60;7.00;;;20.70;7.50;;;;;;4888896;29;20422;-77
2024/04/07 09:58:05;;;;;;;7.83;7.13;;;20.70;7.50;;;;;;4891664;29;20442;-77
2024/04/07 10:00:31;;;;;;;6.57;5.97;;;20.80;8.00;;;;;;4895042;29;20976;-76
2024/04/07 10:02:58;;;;;;;12.03;6.80;;;20.90;8.40;;;;;;4888346;29;20865;-77
2024/04/07 10:05:24;;;;;;;6.30;5.63;;;21.00;8.60;;;;;;4892192;29;20450;-78
2024/04/07 10:07:50;;;;;;;8.87;6.70;;;21.10;8.50;;;;;;4910595;29;20881;-77
2024/04/07 10:10:21;;;;;;;7.83;6.47;;;21.30;8.20;;;;;;4882182;29;20198;-78
2024/04/07 10:12:47;;;;;;;6.67;6.10;;;21.40;8.30;;;;;;4893501;29;20557;-80
2024/04/07 10:15:20;;;;;;;6.90;6.23;;;21.50;8.20;;;;;;4892175;29;20489;-77
2024/04/07 10:17:46;;;;;;;5.20;4.80;;;21.60;8.10;;;;;;4884094;29;20186;-78
2024/04/07 10:20:14;;;;;;;9.03;5.97;;;21.60;7.30;;;;;;4884122;29;20446;-78
2024/04/07 10:22:43;;;;;;;10.63;5.17;;;21.70;6.80;;;;;;4880732;29;21114;-78
2024/04/07 10:25:09;;;;;;;10.03;6.60;;;21.60;7.30;;;;;;4886044;29;20441;-77
2024/04/07 10:27:43;;;;;;;6.13;5.63;;;21.80;7.20;;;;;;4887691;29;20457;-78
2024/04/07 10:30:14;;;;;;;7.83;6.07;;;21.80;6.00;;;;;;4885721;29;20499;-78
2024/04/07 10:32:40;;;;;;;6.20;5.70;;;21.90;6.10;;;;;;4886849;29;20533;-78
2024/04/07 10:35:08;;;;;;;6.40;5.90;;;21.90;6.60;;;;;;4886409;29;20442;-79
2024/04/07 10:37:34;;;;;;;8.50;5.30;;;22.00;6.40;;;;;;4892560;29;20197;-77
2024/04/07 10:40:08;;;;;;;5.77;5.43;;;22.00;6.60;;;;;;4893373;29;20431;-77
2024/04/07 10:42:34;;;;;;;6.70;6.10;;;22.10;6.20;;;;;;4887440;29;20461;-77
2024/04/07 10:45:01;;;;;;;9.70;7.23;;;22.20;6.30;;;;;;4883129;29;21105;-77
2024/04/07 10:47:27;;;;;;;6.40;5.90;;;22.20;6.70;;;;;;4891693;29;20468;-78
2024/04/07 10:49:52;;;;;;;7.03;6.33;;;22.10;6.40;;;;;;4885971;29;20433;-76
2024/04/07 10:52:19;;;;;;;7.73;6.43;;;22.10;6.50;;;;;;4895473;29;20224;-77
2024/04/07 10:54:45;;;;;;;6.50;5.90;;;22.10;7.20;;;;;;4889538;29;20181;-77
2024/04/07 10:57:14;;;;;;;6.30;5.80;;;22.00;6.80;;;;;;4896436;29;20444;-77
2024/04/07 10:59:40;;;;;;;7.20;6.37;;;22.00;6.80;;;;;;4900419;29;20449;-79
2024/04/07 11:02:07;;;;;;;5.63;5.13;;;22.00;6.50;;;;;;4898199;29;20453;-78
2024/04/07 11:04:34;;;;;;;6.30;5.67;;;22.00;6.40;;;;;;4894800;29;20543;-78
2024/04/07 11:07:03;;;;;;;6.13;5.57;;;22.00;6.80;;;;;;4902363;29;20469;-77
2024/04/07 11:09:29;;;;;;;7.87;6.27;;;22.10;7.10;;;;;;4908864;29;20520;-78
2024/04/07 11:11:55;;;;;;;6.73;6.00;;;22.10;7.00;;;;;;4892045;29;20547;-77
2024/04/07 11:14:29;;;;;;;6.33;5.67;;;22.10;7.10;;;;;;4914884;29;20669;-77
2024/04/07 11:16:56;;;;;;;9.43;6.20;;;22.20;6.50;;;;;;4891829;29;20857;-77
2024/04/07 11:19:25;;;;;;;7.00;6.30;;;22.20;6.60;;;;;;4892389;29;20504;-78
2024/04/07 11:21:52;;;;;;;7.90;6.17;;;22.20;7.00;;;;;;4890412;29;20468;-76
2024/04/07 11:24:19;;;;;;;6.30;5.70;;;22.30;6.40;;;;;;4898049;29;20440;-79
2024/04/07 11:26:46;;;;;;;8.83;5.73;;;22.30;6.30;;;;;;4896963;29;20477;-78
2024/04/07 11:29:12;;;;;;;8.10;5.60;;;22.30;6.30;;;;;;4894363;29;20434;-78
2024/04/07 11:31:38;;;;;;;6.33;5.73;;;22.40;6.50;;;;;;4896245;29;20513;-79
2024/04/07 11:34:04;;;;;;;7.03;5.17;;;22.30;6.50;;;;;;4909105;23;20505;-83
2024/04/07 11:36:30;;;;;;;7.43;5.67;;;22.30;6.50;;;;;;4887914;29;20668;-84
2024/04/07 11:38:56;;;;;;;8.30;5.87;;;22.30;6.50;;;;;;4883350;29;20438;-83
2024/04/07 11:41:21;;;;;;;6.13;5.20;;;22.30;6.30;;;;;;4888850;29;20584;-83
2024/04/07 11:43:50;;;;;;;7.90;4.90;;;22.20;6.30;;;;;;4886689;29;20216;-84
2024/04/07 11:46:18;;;;;;;10.00;5.10;;;22.30;6.40;;;;;;4883144;29;20207;-83
2024/04/07 11:48:44;;;;;;;6.67;4.63;;;22.30;6.60;;;;;;4888264;29;20473;-82
2024/04/07 11:51:10;;;;;;;7.90;5.20;;;22.40;5.80;;;;;;4884536;29;20868;-84
2024/04/07 11:53:36;;;;;;;6.30;5.63;;;22.40;6.40;;;;;;4919689;29;20212;-84
2024/04/07 11:56:03;;;;;;;11.13;5.90;;;22.50;6.30;;;;;;4895865;29;20253;-84
2024/04/07 11:58:50;;;;;;;9.10;5.13;;;22.60;4.50;;;;;;4883257;29;20450;-85
2024/04/07 12:01:22;;;;;;;6.00;5.50;;;22.60;4.80;;;;;;4902373;29;20453;-84
2024/04/07 12:03:54;;;;;;;5.47;4.90;;;22.60;4.70;;;;;;4890313;29;20917;-84
2024/04/07 12:06:22;;;;;;;6.00;5.50;;;22.60;5.60;;;;;;4888466;29;20449;-84
2024/04/07 12:08:48;;;;;;;7.30;5.67;;;22.60;6.00;;;;;;4907425;29;20476;-85
2024/04/07 12:11:14;;;;;;;6.60;5.83;;;22.70;6.60;;;;;;4891292;29;20467;-82
2024/04/07 12:13:39;;;;;;;5.77;4.80;;;22.80;6.60;;;;;;4900276;29;20213;-83
2024/04/07 12:16:06;;;;;;;7.87;6.07;;;22.80;6.50;;;;;;4898247;29;20187;-83
2024/04/07 12:18:31;;;;;;;5.97;5.47;;;22.80;6.50;;;;;;4904276;29;20191;-82
2024/04/07 12:20:57;;;;;;;7.93;5.50;;;22.90;6.10;;;;;;4899279;29;20441;-83
2024/04/07 12:23:22;;;;;;;6.30;5.20;;;23.00;6.20;;;;;;4904436;29;20219;-83
2024/04/07 12:25:48;;;;;;;4.97;4.50;;;22.90;6.10;;;;;;4898852;29;20198;-82
2024/04/07 12:28:15;;;;;;;5.50;5.00;;;22.90;6.10;;;;;;4891409;29;20213;-82
2024/04/07 12:30:40;;;;;;;5.23;4.50;;;22.90;6.70;;;;;;4902397;29;20189;-82
2024/04/07 12:33:08;;;;;;;7.50;5.43;;;23.00;5.60;;;;;;4899880;29;20993;-82
2024/04/07 12:35:34;;;;;;;5.30;4.80;;;23.00;5.80;;;;;;4890411;29;20754;-82
2024/04/07 12:38:00;;;;;;;7.80;5.60;;;23.10;5.60;;;;;;4892363;29;20439;-83
2024/04/07 12:40:25;;;;;;;8.90;5.03;;;23.10;5.20;;;;;;4903162;29;20197;-82
2024/04/07 12:42:51;;;;;;;6.50;5.17;;;23.10;5.30;;;;;;4883770;29;20223;-82
2024/04/07 12:45:16;;;;;;;6.67;5.27;;;23.10;6.20;;;;;;4907238;29;20194;-82
2024/04/07 12:47:42;;;;;;;11.20;5.13;;;23.00;6.20;;;;;;4895697;29;20258;-82
2024/04/07 12:50:07;;;;;;;7.97;6.50;;;23.00;5.50;;;;;;4884891;29;20191;-82
2024/04/07 12:52:37;;;;;;;10.23;5.10;;;23.10;5.90;;;;;;4893375;29;20210;-82